Time;durP1;ratioP1;P1;durP2;ratioP2;P2;SDS_P1;SDS_P2;PMS_P1;PMS_P2;Temp;Humidity;BMP_temperature;BMP_pressure;BME280_temperature;BME280_humidity;BME280_pressure;Samples;Min_cycle;Max_cycle;Signal;HPM_P1;HPM_P2
2023/02/13 00:01:22;;;;;;;203.18;186.10;;;;;;;5.58;90.16;103924.13;4999201;28;20141;-71
2023/02/13 00:03:47;;;;;;;213.55;196.68;;;;;;;5.62;90.26;103938.75;4985645;28;20116;-72
2023/02/13 00:06:13;;;;;;;212.18;195.48;;;;;;;5.54;90.41;103936.91;4996689;28;20066;-71
2023/02/13 00:08:38;;;;;;;205.95;188.27;;;;;;;5.53;90.18;103932.56;4997296;28;20073;-72
2023/02/13 00:11:04;;;;;;;206.20;188.20;;;;;;;5.53;90.17;103932.56;4999971;28;20034;-72
2023/02/13 00:13:30;;;;;;;204.57;187.10;;;;;;;5.54;90.38;103933.41;4993018;28;20030;-73
2023/02/13 00:15:57;;;;;;;215.38;198.32;;;;;;;5.56;90.26;103940.25;4979595;28;20535;-73
2023/02/13 00:18:27;;;;;;;213.70;196.50;;;;;;;5.61;90.52;103931.78;4975757;28;20061;-73
2023/02/13 00:21:01;;;;;;;216.45;199.27;;;;;;;5.64;90.16;103939.47;4998220;28;20091;-74
2023/02/13 00:23:30;;;;;;;202.50;185.05;;;;;;;5.56;90.15;103932.28;4992546;28;20069;-72
2023/02/13 00:25:55;;;;;;;206.30;188.50;;;;;;;5.60;90.65;103941.59;4984493;28;20720;-74
2023/02/13 00:28:21;;;;;;;213.65;196.88;;;;;;;5.53;90.28;103929.09;4997424;28;20048;-71
2023/02/13 00:30:47;;;;;;;217.73;200.30;;;;;;;5.64;90.03;103929.66;4992364;28;21794;-73
2023/02/13 00:33:12;;;;;;;216.77;199.65;;;;;;;5.58;90.36;103924.97;4974303;28;20030;-73
2023/02/13 00:35:38;;;;;;;205.27;187.82;;;;;;;5.56;90.41;103920.81;4982102;28;20132;-74
2023/02/13 00:38:03;;;;;;;207.50;189.48;;;;;;;5.57;90.36;103923.31;4990192;28;20117;-72
2023/02/13 00:40:29;;;;;;;224.88;206.45;;;;;;;5.54;90.52;103914.78;4996832;28;20045;-73
2023/02/13 00:42:57;;;;;;;222.25;204.23;;;;;;;5.53;90.49;103923.78;5013836;28;20049;-73
2023/02/13 00:45:24;;;;;;;221.48;203.77;;;;;;;5.50;90.43;103919.63;5009434;28;20038;-73
2023/02/13 00:47:50;;;;;;;204.20;186.48;;;;;;;5.57;90.45;103918.00;4999911;28;20483;-72
2023/02/13 00:50:18;;;;;;;222.63;204.65;;;;;;;5.47;90.28;103920.75;4989927;28;20041;-73
2023/02/13 00:52:44;;;;;;;209.35;191.05;;;;;;;5.47;90.35;103927.88;5001038;28;20406;-74
2023/02/13 00:55:12;;;;;;;216.60;199.32;;;;;;;5.50;90.78;103922.28;5002826;28;20041;-74
2023/02/13 00:57:37;;;;;;;210.82;193.85;;;;;;;5.55;90.23;103925.25;5018827;28;20396;-74
2023/02/13 01:00:04;;;;;;;211.63;194.88;;;;;;;5.54;90.24;103923.59;4984452;28;20054;-72
2023/02/13 01:02:30;;;;;;;203.85;186.52;;;;;;;5.58;90.39;103919.66;4962183;28;20180;-73
2023/02/13 01:04:56;;;;;;;214.38;197.40;;;;;;;5.57;90.06;103920.66;4982850;28;20116;-72
2023/02/13 01:07:23;;;;;;;221.45;203.73;;;;;;;5.55;89.99;103922.59;4983314;28;20072;-73
2023/02/13 01:09:49;;;;;;;205.75;188.07;;;;;;;5.46;90.32;103920.91;4987746;28;20045;-72
2023/02/13 01:12:14;;;;;;;204.45;186.73;;;;;;;5.45;90.08;103920.06;4988051;28;20069;-73
2023/02/13 01:14:42;;;;;;;204.13;186.75;;;;;;;5.48;90.29;103914.44;5004750;28;20741;-71
2023/02/13 01:17:09;;;;;;;206.95;189.45;;;;;;;5.46;90.31;103905.78;4988143;28;20034;-74
2023/02/13 01:19:35;;;;;;;205.63;188.25;;;;;;;5.44;90.15;103914.94;4986806;28;20080;-72
2023/02/13 01:22:00;;;;;;;212.48;195.60;;;;;;;5.43;90.57;103910.59;5004529;28;20471;-72
2023/02/13 01:24:28;;;;;;;208.50;190.27;;;;;;;5.36;90.46;103906.91;4986982;28;20248;-74
2023/02/13 01:26:54;;;;;;;203.52;186.10;;;;;;;5.35;90.56;103915.84;4984864;28;20033;-72
2023/02/13 01:29:20;;;;;;;202.52;185.50;;;;;;;5.34;90.48;103917.69;5000346;28;20042;-73
2023/02/13 01:31:46;;;;;;;200.65;183.98;;;;;;;5.37;90.26;103912.06;4980990;28;20483;-73
2023/02/13 01:34:11;;;;;;;199.50;182.57;;;;;;;5.36;90.43;103913.06;4999257;28;20029;-72
2023/02/13 01:36:41;;;;;;;199.63;183.00;;;;;;;5.32;90.45;103914.34;4986941;28;20049;-72
2023/02/13 01:39:11;;;;;;;210.57;194.20;;;;;;;5.28;90.67;103906.84;5033085;28;20483;-73
2023/02/13 01:41:37;;;;;;;215.30;198.55;;;;;;;5.34;90.21;103903.56;5002448;28;20034;-73
2023/02/13 01:44:41;;;;;;;199.57;182.85;;;;;;;5.32;90.11;103905.53;5004574;28;20080;-72
2023/02/13 01:47:09;;;;;;;201.40;184.30;;;;;;;5.40;90.44;103892.31;4984688;28;20037;-72
2023/02/13 01:49:36;;;;;;;208.65;192.45;;;;;;;5.40;90.00;103892.31;5001598;28;20503;-71
2023/02/13 01:52:02;;;;;;;209.40;192.93;;;;;;;5.27;90.06;103882.09;5003735;28;20030;-71
2023/02/13 01:54:33;;;;;;;214.45;197.77;;;;;;;5.25;90.01;103880.59;4981170;28;20177;-71
2023/02/13 01:57:09;;;;;;;207.18;190.95;;;;;;;5.34;90.15;103874.31;5012812;28;20049;-72
2023/02/13 02:00:02;;;;;;;207.95;191.85;;;;;;;5.26;90.23;103887.56;4985476;28;20065;-73
2023/02/13 02:02:30;;;;;;;199.55;183.10;;;;;;;5.24;90.11;103889.56;4970387;28;20042;-72
2023/02/13 02:05:00;;;;;;;206.73;190.93;;;;;;;5.18;90.27;103886.53;5013393;28;20034;-73
2023/02/13 02:07:29;;;;;;;205.55;189.85;;;;;;;5.22;90.10;103880.91;4983913;28;20033;-72
2023/02/13 02:10:06;;;;;;;206.82;191.15;;;;;;;5.25;90.27;103888.56;4986326;28;20030;-73
2023/02/13 02:12:48;;;;;;;205.55;189.85;;;;;;;5.21;90.03;103880.06;4980727;28;20092;-73
2023/02/13 02:15:17;;;;;;;198.63;182.07;;;;;;;5.27;89.72;103881.25;4996542;28;20049;-72
2023/02/13 02:17:42;;;;;;;196.23;180.32;;;;;;;5.26;90.07;103875.13;5003749;28;20088;-71
2023/02/13 02:20:46;;;;;;;208.02;192.43;;;;;;;5.31;89.76;103869.34;4984595;28;20395;-73
2023/02/13 02:24:10;;;;;;;212.45;196.20;;;;;;;5.23;89.96;103869.31;4998289;28;20128;-71
2023/02/13 02:26:42;;;;;;;198.07;181.82;;;;;;;5.30;89.16;103873.00;5000677;28;20046;-72
2023/02/13 02:29:23;;;;;;;197.90;181.80;;;;;;;5.28;89.25;103870.47;4973077;28;20049;-73
2023/02/13 02:32:10;;;;;;;208.88;191.52;;;;;;;5.20;89.35;103873.91;4998201;28;20283;-72
2023/02/13 02:34:41;;;;;;;207.00;190.90;;;;;;;5.17;89.77;103866.28;4995940;28;20705;-73
2023/02/13 02:37:43;;;;;;;197.97;181.63;;;;;;;5.18;89.12;103875.06;4995375;28;20053;-73
2023/02/13 02:40:21;;;;;;;215.20;198.77;;;;;;;5.18;89.44;103873.25;4983655;28;20041;-72
2023/02/13 02:43:12;;;;;;;197.35;180.90;;;;;;;5.25;89.27;103875.28;4986327;28;20220;-73
2023/02/13 02:45:43;;;;;;;196.13;180.05;;;;;;;5.17;88.88;103873.41;4984282;28;20046;-72
2023/02/13 02:51:47;;;;;;;203.32;186.63;;;;;;;5.07;89.38;103872.66;4982103;28;20045;-72
2023/02/13 02:57:17;;;;;;;210.32;194.30;;;;;;;5.16;89.01;103869.94;5002423;28;20049;-71
2023/02/13 03:08:11;;;;;;;191.00;175.68;;;;;;;5.08;88.70;103855.72;4982864;28;20172;-73
2023/02/13 03:13:47;;;;;;;200.93;185.95;;;;;;;5.08;88.82;103853.94;4994646;28;20030;-73
2023/02/13 03:24:44;;;;;;;205.80;190.57;;;;;;;5.01;88.35;103865.31;5003726;28;20380;-73
2023/02/13 03:30:57;;;;;;;202.10;185.57;;;;;;;4.98;88.25;103863.81;5001156;28;20527;-72
2023/02/13 03:33:38;;;;;;;207.07;191.60;;;;;;;4.99;88.43;103869.97;4986460;28;20045;-74
2023/02/13 03:39:21;;;;;;;193.35;177.55;;;;;;;4.93;88.63;103871.41;4999614;28;20041;-71
2023/02/13 03:41:56;;;;;;;206.02;190.70;;;;;;;4.98;88.31;103869.13;5000616;28;20033;-73
2023/02/13 03:44:25;;;;;;;203.98;188.80;;;;;;;4.91;88.43;103870.75;5002229;28;20191;-72
2023/02/13 03:46:54;;;;;;;193.65;178.02;;;;;;;4.94;88.39;103865.09;4982343;28;20033;-72
2023/02/13 03:52:31;;;;;;;200.65;185.73;;;;;;;4.82;88.99;103866.38;4987128;28;20080;-72
2023/02/13 04:00:50;;;;;;;203.23;188.15;;;;;;;4.81;88.93;103868.19;5000593;28;20112;-73
2023/02/13 04:03:49;;;;;;;202.88;187.85;;;;;;;4.79;89.27;103866.66;5017406;28;20100;-73
2023/02/13 04:06:24;;;;;;;188.38;173.15;;;;;;;4.84;88.85;103881.16;4978017;28;20037;-72
2023/02/13 04:08:49;;;;;;;201.00;186.10;;;;;;;4.82;88.98;103882.31;5000340;28;20503;-72
2023/02/13 04:11:30;;;;;;;190.75;175.38;;;;;;;4.80;89.17;103876.28;4995669;28;20057;-72
2023/02/13 04:13:58;;;;;;;205.85;190.50;;;;;;;4.80;88.93;103865.69;4993143;28;20033;-72
2023/02/13 04:16:28;;;;;;;198.35;183.57;;;;;;;4.78;89.27;103873.81;4982821;28;20037;-72
2023/02/13 04:18:55;;;;;;;197.35;181.25;;;;;;;4.88;89.09;103868.41;5010201;28;20044;-72
2023/02/13 04:21:21;;;;;;;189.63;174.25;;;;;;;4.90;88.86;103864.59;4979822;28;20341;-72
2023/02/13 04:23:47;;;;;;;192.18;176.70;;;;;;;4.88;89.04;103877.22;4983885;28;20719;-73
2023/02/13 04:26:18;;;;;;;194.90;178.93;;;;;;;4.88;89.00;103874.56;4999741;28;20115;-73
2023/02/13 04:28:44;;;;;;;191.52;176.30;;;;;;;4.83;88.63;103876.00;4998039;28;20038;-72
2023/02/13 04:31:10;;;;;;;201.35;186.07;;;;;;;4.76;89.09;103869.66;4997755;28;20115;-72
2023/02/13 04:33:35;;;;;;;195.55;179.43;;;;;;;4.88;88.54;103863.94;4981197;28;20116;-72
2023/02/13 04:36:01;;;;;;;197.52;181.30;;;;;;;4.85;88.84;103869.53;5001676;28;20149;-73
2023/02/13 04:38:27;;;;;;;197.85;181.60;;;;;;;4.89;88.54;103870.06;4982942;28;22237;-70
2023/02/13 04:40:52;;;;;;;204.60;189.40;;;;;;;4.83;89.04;103870.69;4999175;28;20034;-73
2023/02/13 04:43:18;;;;;;;191.55;176.20;;;;;;;4.84;88.83;103867.03;5002681;28;20034;-72
2023/02/13 04:45:47;;;;;;;193.32;177.63;;;;;;;4.85;88.66;103869.53;4985982;28;20038;-74
2023/02/13 04:48:12;;;;;;;199.07;182.70;;;;;;;4.82;89.10;103869.03;4993546;28;20117;-72
2023/02/13 04:50:38;;;;;;;194.23;178.32;;;;;;;4.79;89.07;103864.84;5000114;28;20470;-74
2023/02/13 04:53:04;;;;;;;192.90;177.40;;;;;;;4.75;89.45;103870.63;4964443;28;20038;-73
2023/02/13 04:55:30;;;;;;;203.70;188.35;;;;;;;4.73;89.24;103875.25;4984510;28;20037;-72
2023/02/13 04:57:56;;;;;;;192.00;176.35;;;;;;;4.70;89.17;103875.56;5015636;28;20499;-74
2023/02/13 05:00:24;;;;;;;202.63;187.27;;;;;;;4.70;89.28;103857.00;5001320;28;20034;-73
2023/02/13 05:02:49;;;;;;;199.73;183.10;;;;;;;4.71;89.62;103866.63;4984971;28;20037;-70
2023/02/13 05:05:15;;;;;;;192.75;177.32;;;;;;;4.67;89.81;103866.06;5001676;28;20029;-71
2023/02/13 05:07:41;;;;;;;193.05;177.02;;;;;;;4.64;89.75;103872.53;5001656;28;20148;-71
2023/02/13 05:10:08;;;;;;;201.90;185.07;;;;;;;4.61;89.90;103867.53;4998838;28;20061;-71
2023/02/13 05:12:34;;;;;;;195.13;179.38;;;;;;;4.63;90.19;103862.91;5002193;28;20040;-72
2023/02/13 05:14:59;;;;;;;204.70;188.88;;;;;;;4.64;89.65;103866.41;4982285;28;20045;-71
2023/02/13 05:17:25;;;;;;;190.38;174.63;;;;;;;4.60;89.79;103865.84;4994378;28;20047;-71
2023/02/13 05:19:51;;;;;;;204.70;189.27;;;;;;;4.59;89.97;103858.88;4986162;28;20124;-72
2023/02/13 05:25:01;;;;;;;207.43;191.80;;;;;;;4.58;90.18;103853.72;5001555;28;20054;-72
2023/02/13 05:27:26;;;;;;;196.35;179.98;;;;;;;4.55;89.85;103854.88;4983839;28;20041;-71
2023/02/13 05:29:52;;;;;;;200.05;183.50;;;;;;;4.54;89.71;103850.56;5000906;28;20544;-72
2023/02/13 05:32:18;;;;;;;204.35;188.80;;;;;;;4.55;90.08;103862.00;4996303;28;20025;-72
2023/02/13 05:34:43;;;;;;;207.60;191.90;;;;;;;4.52;90.31;103872.91;5002982;28;20491;-72
2023/02/13 05:37:11;;;;;;;193.25;177.43;;;;;;;4.53;90.00;103875.41;5000829;28;20040;-72
2023/02/13 05:39:37;;;;;;;197.40;181.43;;;;;;;4.65;89.62;103868.06;4982056;28;20042;-70
2023/02/13 05:42:03;;;;;;;195.75;179.55;;;;;;;4.60;89.54;103873.81;5018466;28;20045;-72
2023/02/13 05:44:29;;;;;;;198.52;182.43;;;;;;;4.60;89.60;103876.47;5001179;28;20076;-73
2023/02/13 05:46:55;;;;;;;196.18;180.15;;;;;;;4.58;89.60;103869.66;4998906;28;20110;-71
2023/02/13 05:49:21;;;;;;;203.32;187.95;;;;;;;4.55;89.58;103862.84;5000206;28;20087;-73
2023/02/13 05:51:48;;;;;;;198.63;182.40;;;;;;;4.56;89.82;103861.03;4997064;28;20037;-72
2023/02/13 05:54:13;;;;;;;207.93;192.13;;;;;;;4.64;89.97;103864.56;5001110;28;20680;-71
2023/02/13 05:56:39;;;;;;;205.35;189.98;;;;;;;4.57;89.78;103876.78;4985188;28;20034;-71
2023/02/13 05:59:05;;;;;;;208.25;192.27;;;;;;;4.55;89.59;103878.78;5003470;28;20129;-73
2023/02/13 06:01:31;;;;;;;196.07;179.82;;;;;;;4.49;90.02;103882.03;5006104;28;20109;-73
2023/02/13 06:03:57;;;;;;;201.68;186.32;;;;;;;4.50;89.71;103885.53;4988518;28;20022;-72
2023/02/13 06:06:24;;;;;;;208.85;192.98;;;;;;;4.52;89.78;103894.16;5003293;28;20072;-72
2023/02/13 06:08:50;;;;;;;199.50;183.13;;;;;;;4.50;89.83;103894.31;4994877;28;20056;-74
2023/02/13 06:11:16;;;;;;;194.00;178.05;;;;;;;4.51;89.99;103892.50;4997211;28;20034;-70
2023/02/13 06:13:42;;;;;;;198.65;182.40;;;;;;;4.56;89.77;103885.75;5002801;28;20037;-72
2023/02/13 06:16:09;;;;;;;197.73;181.32;;;;;;;4.53;89.88;103886.03;4988418;28;20797;-71
2023/02/13 06:18:35;;;;;;;198.88;182.85;;;;;;;4.52;89.73;103883.53;5002339;28;20046;-71
2023/02/13 06:21:01;;;;;;;195.48;179.15;;;;;;;4.55;89.65;103889.38;4971897;28;20108;-71
2023/02/13 06:23:28;;;;;;;196.98;180.93;;;;;;;4.57;89.53;103890.06;4997514;28;20034;-71
2023/02/13 06:25:54;;;;;;;194.88;179.02;;;;;;;4.50;89.90;103889.00;4981797;28;20719;-71
2023/02/13 06:28:20;;;;;;;204.55;189.45;;;;;;;4.51;89.74;103882.72;4988761;28;20042;-71
2023/02/13 06:30:47;;;;;;;197.25;181.13;;;;;;;4.50;90.10;103880.22;5012797;28;20029;-71
2023/02/13 06:33:14;;;;;;;207.55;191.80;;;;;;;4.50;90.11;103891.66;4981760;28;20033;-71
2023/02/13 06:35:39;;;;;;;196.60;180.43;;;;;;;4.48;89.82;103898.94;4970418;28;20038;-72
2023/02/13 06:38:05;;;;;;;194.48;178.60;;;;;;;4.49;89.86;103897.13;5001013;28;20046;-71
2023/02/13 06:40:31;;;;;;;194.43;178.93;;;;;;;4.51;89.95;103903.94;5002491;28;20034;-71
2023/02/13 06:42:56;;;;;;;202.75;187.40;;;;;;;4.57;90.10;103897.19;4988566;28;20038;-71
2023/02/13 06:45:22;;;;;;;205.25;189.95;;;;;;;4.60;89.84;103904.84;5002287;28;20034;-72
2023/02/13 06:47:48;;;;;;;196.82;180.80;;;;;;;4.51;89.84;103909.25;5001225;28;20435;-72
2023/02/13 06:50:15;;;;;;;201.63;185.93;;;;;;;4.52;89.96;103910.91;5001976;28;20037;-73
2023/02/13 06:52:46;;;;;;;200.85;184.55;;;;;;;4.54;89.71;103916.94;5004417;28;20042;-72
2023/02/13 06:55:12;;;;;;;205.60;189.98;;;;;;;4.60;89.80;103918.94;5001829;28;20130;-73
2023/02/13 06:57:38;;;;;;;197.07;180.80;;;;;;;4.55;89.34;103926.56;4984005;28;20065;-73
2023/02/13 07:00:04;;;;;;;196.65;180.27;;;;;;;4.53;89.76;103928.50;4999762;28;20042;-73
2023/02/13 07:02:31;;;;;;;201.88;186.57;;;;;;;4.53;89.97;103931.16;5000709;28;20046;-71
2023/02/13 07:04:56;;;;;;;201.43;184.43;;;;;;;4.52;89.95;103926.00;4999546;28;20058;-73
2023/02/13 07:07:22;;;;;;;205.52;190.13;;;;;;;4.55;90.05;103937.16;4984107;28;20089;-72
2023/02/13 07:09:48;;;;;;;204.88;189.48;;;;;;;4.59;89.66;103932.38;4998775;28;20054;-71
2023/02/13 07:12:13;;;;;;;198.95;182.55;;;;;;;4.60;89.87;103934.88;5000025;28;20049;-73
2023/02/13 07:14:39;;;;;;;207.77;191.93;;;;;;;4.58;90.01;103923.56;4996946;28;20049;-71
2023/02/13 07:17:05;;;;;;;193.57;177.65;;;;;;;4.57;89.92;103934.34;4999489;28;20058;-73
2023/02/13 07:19:32;;;;;;;208.57;192.80;;;;;;;4.56;89.79;103938.84;5001388;28;20048;-73
2023/02/13 07:21:58;;;;;;;195.52;179.38;;;;;;;4.60;89.58;103940.19;4988507;28;20047;-72
2023/02/13 07:24:23;;;;;;;198.98;182.55;;;;;;;4.60;90.05;103942.84;4982858;28;20037;-71
2023/02/13 07:26:50;;;;;;;206.40;190.73;;;;;;;4.62;89.79;103940.06;4986338;28;20080;-72
2023/02/13 07:29:16;;;;;;;193.68;177.80;;;;;;;4.68;89.97;103938.63;5002868;28;20032;-72
2023/02/13 07:31:41;;;;;;;202.32;187.02;;;;;;;4.69;89.78;103942.94;5000412;28;20030;-72
2023/02/13 07:34:07;;;;;;;194.98;178.85;;;;;;;4.74;89.68;103941.50;5013622;28;20471;-72
2023/02/13 07:36:33;;;;;;;196.57;180.32;;;;;;;4.76;89.84;103941.34;5002198;28;20041;-72
2023/02/13 07:38:58;;;;;;;193.95;177.85;;;;;;;4.77;89.63;103943.00;5001722;28;20037;-71
2023/02/13 07:41:25;;;;;;;199.15;182.65;;;;;;;4.78;89.58;103947.31;5001464;28;20148;-71
2023/02/13 07:43:52;;;;;;;208.07;191.85;;;;;;;4.79;89.58;103951.63;4971808;28;20034;-71
2023/02/13 07:46:17;;;;;;;206.65;190.88;;;;;;;4.84;89.24;103949.38;4999092;28;20180;-72
2023/02/13 07:48:43;;;;;;;197.07;181.07;;;;;;;4.86;89.64;103956.19;5001947;28;20501;-73
2023/02/13 07:51:09;;;;;;;207.45;191.30;;;;;;;4.87;89.23;103946.41;5003367;28;20026;-71
2023/02/13 07:53:35;;;;;;;195.02;179.07;;;;;;;4.89;89.36;103952.41;5005326;28;20088;-71
2023/02/13 07:56:08;;;;;;;202.05;186.50;;;;;;;4.96;89.23;103960.59;5005362;28;20033;-71
2023/02/13 07:58:35;;;;;;;202.77;187.13;;;;;;;4.95;89.38;103958.94;5002233;28;20534;-71
2023/02/13 08:01:06;;;;;;;205.63;189.18;;;;;;;4.96;89.21;103956.13;4999824;28;20396;-72
2023/02/13 08:03:32;;;;;;;201.68;186.40;;;;;;;5.02;89.27;103958.16;5003065;28;20034;-73
2023/02/13 08:05:57;;;;;;;193.32;177.52;;;;;;;5.06;89.25;103954.19;5002132;28;20097;-73
2023/02/13 08:08:23;;;;;;;206.23;190.88;;;;;;;5.07;88.75;103966.47;4998837;28;20038;-73
2023/02/13 08:13:34;;;;;;;206.60;190.68;;;;;;;5.12;88.83;103958.88;4995992;28;20030;-72
2023/02/13 08:15:59;;;;;;;207.00;191.18;;;;;;;5.15;88.85;103960.41;4998289;28;20084;-73
2023/02/13 08:18:25;;;;;;;195.13;179.10;;;;;;;5.15;88.88;103961.25;5002034;28;20034;-72
2023/02/13 08:20:51;;;;;;;192.43;176.73;;;;;;;5.17;88.84;103966.41;5001067;28;20613;-71
2023/02/13 08:23:16;;;;;;;194.43;178.48;;;;;;;5.22;88.95;103957.97;5000183;28;20038;-72
2023/02/13 08:25:42;;;;;;;196.30;179.85;;;;;;;5.34;88.59;103964.69;5005094;28;20034;-72
2023/02/13 08:28:08;;;;;;;202.70;187.40;;;;;;;5.30;88.48;103961.53;5003787;28;20055;-73
2023/02/13 08:30:33;;;;;;;203.90;188.40;;;;;;;5.30;87.82;103963.34;5002586;28;20037;-72
2023/02/13 08:32:59;;;;;;;196.35;180.13;;;;;;;5.31;88.16;103970.31;5002672;28;20119;-74
2023/02/13 08:35:28;;;;;;;203.23;187.75;;;;;;;5.34;88.21;103960.19;4988383;28;20155;-74
2023/02/13 08:37:54;;;;;;;205.82;190.20;;;;;;;5.37;88.07;103959.06;5001694;28;20048;-73
2023/02/13 08:40:20;;;;;;;198.65;182.45;;;;;;;5.40;87.95;103950.78;5034258;28;20037;-73
2023/02/13 08:42:46;;;;;;;203.07;188.02;;;;;;;5.52;87.93;103956.66;4986069;28;20042;-71
2023/02/13 08:45:12;;;;;;;203.30;187.75;;;;;;;5.51;87.54;103958.50;4986362;28;20064;-74
2023/02/13 08:47:38;;;;;;;194.50;178.88;;;;;;;5.56;87.64;103966.00;4983509;28;20045;-74
2023/02/13 08:50:05;;;;;;;206.65;190.55;;;;;;;5.55;88.13;103965.16;4996552;28;20038;-74
2023/02/13 08:52:31;;;;;;;195.80;179.93;;;;;;;5.53;87.73;103964.47;5000911;28;20061;-73
2023/02/13 08:54:56;;;;;;;206.00;190.43;;;;;;;5.62;87.87;103963.56;5000302;28;20061;-71
2023/02/13 08:57:22;;;;;;;207.93;192.13;;;;;;;5.58;87.10;103961.34;4985227;28;21019;-74
2023/02/13 08:59:50;;;;;;;201.07;184.40;;;;;;;5.57;87.02;103955.22;4999366;28;20026;-72
2023/02/13 09:02:16;;;;;;;196.43;180.35;;;;;;;5.56;87.65;103952.72;4981063;28;20038;-72
2023/02/13 09:04:41;;;;;;;195.93;179.80;;;;;;;5.68;86.68;103954.09;4987863;28;20087;-72
2023/02/13 09:07:07;;;;;;;198.93;182.80;;;;;;;5.70;86.69;103963.59;5000004;28;20061;-73
2023/02/13 09:09:32;;;;;;;205.50;190.00;;;;;;;5.72;86.05;103956.28;5001898;28;20034;-73
2023/02/13 09:11:59;;;;;;;206.05;190.52;;;;;;;5.69;86.65;103961.94;4985378;28;20793;-74
2023/02/13 09:14:25;;;;;;;199.98;183.73;;;;;;;5.74;86.82;103967.59;4997545;28;20053;-73
2023/02/13 09:16:51;;;;;;;200.93;184.52;;;;;;;5.73;86.53;103976.56;4994442;28;20902;-73
2023/02/13 09:19:17;;;;;;;198.93;182.30;;;;;;;5.74;86.76;103967.59;4996981;28;20174;-74
2023/02/13 09:21:42;;;;;;;203.65;186.82;;;;;;;5.71;86.27;103965.25;4997629;28;20050;-73
2023/02/13 09:24:09;;;;;;;205.02;189.80;;;;;;;5.85;86.54;103963.00;4979474;28;20057;-72
2023/02/13 09:26:35;;;;;;;204.23;188.90;;;;;;;5.81;86.26;103961.63;4999527;28;20157;-73
2023/02/13 09:29:01;;;;;;;210.07;194.20;;;;;;;5.89;85.64;103961.66;4984666;28;20109;-73
2023/02/13 09:31:26;;;;;;;199.73;183.13;;;;;;;5.86;85.77;103969.97;5003355;28;20076;-72
2023/02/13 09:33:52;;;;;;;201.43;184.88;;;;;;;5.93;85.20;103976.34;5003017;28;20107;-72
2023/02/13 09:36:20;;;;;;;200.98;184.50;;;;;;;5.89;85.30;103969.63;4985661;28;20084;-71
2023/02/13 09:38:51;;;;;;;208.82;193.07;;;;;;;5.94;85.46;103972.69;4978749;28;20045;-72
2023/02/13 09:41:27;;;;;;;201.23;184.45;;;;;;;5.87;85.73;103961.00;4989626;28;20030;-71
2023/02/13 09:44:01;;;;;;;210.48;194.52;;;;;;;5.94;85.23;103972.69;4991269;28;20034;-73
2023/02/13 09:46:38;;;;;;;207.40;191.88;;;;;;;5.98;84.88;103969.56;4986489;28;20177;-70
2023/02/13 09:49:13;;;;;;;198.90;182.77;;;;;;;6.02;84.90;103967.41;4986985;28;20129;-73
2023/02/13 09:51:43;;;;;;;205.48;190.10;;;;;;;6.13;85.03;103967.13;4992878;28;20046;-71
2023/02/13 09:54:14;;;;;;;204.65;187.90;;;;;;;6.09;84.23;103960.44;5000141;28;20430;-72
2023/02/13 09:57:09;;;;;;;200.55;184.05;;;;;;;6.05;84.28;103964.44;4984441;28;20775;-73
2023/02/13 09:59:50;;;;;;;206.98;191.38;;;;;;;6.23;83.47;103957.19;4972064;28;20720;-74
2023/02/13 10:02:23;;;;;;;199.23;183.23;;;;;;;6.11;83.72;103970.94;5021433;28;20022;-72
2023/02/13 10:05:20;;;;;;;207.82;192.30;;;;;;;6.17;82.71;103967.66;5004796;28;20049;-73
2023/02/13 10:07:57;;;;;;;207.90;192.40;;;;;;;6.26;83.25;103959.50;4974269;28;20025;-70
2023/02/13 10:10:54;;;;;;;195.88;180.10;;;;;;;6.29;82.77;103961.00;5001979;28;20047;-71
2023/02/13 10:13:42;;;;;;;206.85;191.25;;;;;;;6.31;83.12;103968.84;5003251;28;20128;-71
2023/02/13 10:16:15;;;;;;;206.52;191.13;;;;;;;6.41;82.60;103962.38;5004099;28;20586;-71
2023/02/13 10:19:03;;;;;;;196.85;181.05;;;;;;;6.32;82.14;103954.53;4989716;28;20034;-71
2023/02/13 10:21:36;;;;;;;200.93;184.50;;;;;;;6.27;82.00;103942.53;4982802;28;20031;-71
2023/02/13 10:24:11;;;;;;;207.15;191.50;;;;;;;6.18;82.03;103954.19;4984902;28;20034;-72
2023/02/13 10:26:44;;;;;;;198.05;182.05;;;;;;;6.36;80.01;103950.53;5001819;28;20101;-73
2023/02/13 10:32:09;;;;;;;210.68;194.98;;;;;;;6.29;80.93;103953.03;5000490;28;20113;-73
2023/02/13 10:34:41;;;;;;;198.90;182.88;;;;;;;6.45;80.91;103946.91;5000442;28;20034;-71
2023/02/13 10:37:13;;;;;;;162.23;147.20;;;;;;;6.49;79.30;103950.91;4998776;28;20030;-71
2023/02/13 10:39:42;;;;;;;213.32;197.10;;;;;;;6.48;79.77;103943.91;4969844;28;20125;-70
2023/02/13 10:42:27;;;;;;;202.85;187.65;;;;;;;6.64;79.69;103945.75;4985959;28;20121;-73
2023/02/13 10:45:07;;;;;;;200.93;184.65;;;;;;;6.67;78.28;103946.28;5003709;28;20045;-72
2023/02/13 10:48:04;;;;;;;200.50;184.27;;;;;;;6.67;78.65;103951.59;5003532;28;20048;-72
2023/02/13 10:50:40;;;;;;;208.82;192.90;;;;;;;6.61;78.50;103960.25;5007901;28;20499;-72
2023/02/13 10:53:30;;;;;;;207.82;192.00;;;;;;;6.65;78.71;103950.94;5003618;28;20036;-73
2023/02/13 10:56:16;;;;;;;208.85;193.07;;;;;;;6.67;77.49;103948.09;4998382;28;20034;-73
2023/02/13 10:59:12;;;;;;;195.00;179.15;;;;;;;6.69;76.02;103951.44;5006401;28;20475;-72
2023/02/13 11:01:55;;;;;;;201.55;185.05;;;;;;;6.70;74.84;103945.94;4997867;28;20040;-73
2023/02/13 11:04:21;;;;;;;;;;;;;;;6.66;75.42;103939.28;5011931;28;20034;-73
2023/02/13 11:06:56;;;;;;;202.93;186.32;;;;;;;6.55;76.00;103934.28;5015191;28;19925;-73
2023/02/13 11:09:23;;;;;;;210.23;194.77;;;;;;;6.83;74.22;103932.94;4995060;28;20045;-73
2023/02/13 11:11:49;;;;;;;194.48;178.82;;;;;;;6.70;75.71;103940.59;5004787;28;20091;-73
2023/02/13 11:14:16;;;;;;;202.13;187.25;;;;;;;6.88;75.24;103943.13;4983040;28;20033;-71
2023/02/13 11:16:42;;;;;;;202.57;187.65;;;;;;;6.94;75.47;103939.78;5001296;28;20156;-73
2023/02/13 11:19:16;;;;;;;197.07;181.15;;;;;;;7.12;75.79;103936.97;4996104;28;20569;-71
2023/02/13 11:21:42;;;;;;;191.02;175.95;;;;;;;7.02;73.28;103926.47;4987357;28;20570;-72
2023/02/13 11:24:19;;;;;;;198.75;184.30;;;;;;;7.07;72.89;103924.13;4994331;28;20034;-73
2023/02/13 11:26:51;;;;;;;204.98;189.80;;;;;;;6.95;72.90;103930.78;4989146;28;20034;-72
2023/02/13 11:29:25;;;;;;;205.53;190.07;;;;;;;6.97;73.36;103938.63;4998757;28;20038;-72
2023/02/13 11:32:12;;;;;;;192.68;177.27;;;;;;;6.83;74.63;103926.78;5002052;28;20037;-72
2023/02/13 11:34:38;;;;;;;193.18;177.05;;;;;;;7.01;73.01;103919.47;4986768;28;20117;-72
2023/02/13 11:37:12;;;;;;;204.52;189.07;;;;;;;6.96;73.69;103926.28;5001171;28;20126;-72
2023/02/13 11:39:43;;;;;;;212.13;196.10;;;;;;;6.94;72.35;103922.97;5004447;28;20041;-72
2023/02/13 11:42:18;;;;;;;211.15;194.73;;;;;;;6.85;72.93;103924.81;5002599;28;20076;-72
2023/02/13 11:44:58;;;;;;;211.68;195.82;;;;;;;6.74;74.81;103920.66;5000405;28;20049;-72
2023/02/13 11:47:37;;;;;;;199.95;183.75;;;;;;;6.93;72.20;103927.47;5001867;28;20064;-70
2023/02/13 11:50:05;;;;;;;194.63;179.13;;;;;;;7.02;71.95;103920.28;5004572;28;20041;-71
2023/02/13 11:52:34;;;;;;;196.52;180.90;;;;;;;7.04;71.78;103926.28;4992239;28;20128;-73
2023/02/13 11:55:05;;;;;;;203.82;188.73;;;;;;;7.01;72.21;103931.97;5001444;28;20041;-71
2023/02/13 11:57:36;;;;;;;192.93;177.25;;;;;;;6.99;72.76;103932.13;5001029;28;20029;-70
2023/02/13 12:00:31;;;;;;;205.27;190.15;;;;;;;7.02;71.76;103933.63;5012380;28;20113;-73
2023/02/13 12:02:56;;;;;;;201.48;186.82;;;;;;;7.10;71.08;103921.13;5015938;28;20045;-71
2023/02/13 12:05:25;;;;;;;192.10;176.93;;;;;;;7.12;70.71;103918.31;4999433;28;20026;-72